Latest Weather Observations for Pirlangimpi

IDD60901

Issued at 9:51 pm CST Saturday 28 February 2015 (issued every 10 minutes, with the page automatically refreshed every 10 minutes)

About weather observations | Map of Darwin area stations | Latest observations for Darwin area | Other Formats
Station Details ID: 014142 Name: PIRLANGIMPI AIRPORT Lat: -11.40 Lon: 130.42 Height: 18.3 m
Data from the previous 72 hours. | See also: Recent months at Pirlangimpi
Date/Time
CST
Tmp

°C
App
Tmp
°C
Dew
Point
°C
Rel
Hum
%
Delta-T

°C
Wind Press
QNH
hPa
Press
MSL
hPa
Rain
since
9 am
mm
Dir
 
Spd
km/h
Gust
km/h
Spd
kts
Gust
kts
28/09:30pm 27.4 33.1 25.0 87 1.7 WNW 4 9 2 5 1007.8 1007.7 0.0
28/09:00pm 27.4 33.1 25.0 87 1.7 WNW 4 9 2 5 1007.3 1007.2 0.0
28/08:30pm 27.4 33.3 24.7 85 1.9 WNW 2 11 1 6 1006.5 1006.4 0.0
28/08:00pm 27.8 33.0 24.2 81 2.5 W 4 11 2 6 1006.3 1006.2 0.0
28/07:30pm 28.3 33.2 24.3 79 2.8 W 6 11 3 6 1006.2 1006.1 0.0
28/07:00pm 28.8 34.0 24.8 79 2.8 W 6 9 3 5 1006.1 1006.0 0.0
28/06:30pm 29.3 34.2 24.6 76 3.3 WSW 7 11 4 6 1005.5 1005.4 0.0
28/06:00pm 29.6 35.4 25.1 77 3.2 W 4 7 2 4 1005.1 1005.0 0.0
28/05:30pm 29.4 35.5 25.6 80 2.7 WSW 4 9 2 5 1005.0 1004.9 0.0
28/05:00pm 30.2 35.5 25.3 75 3.5 W 7 15 4 8 1005.3 1005.2 0.0
28/04:30pm 29.7 34.6 24.6 74 3.6 WSW 7 17 4 9 1005.6 1005.5 0.0
28/04:00pm 30.1 35.2 24.9 73 3.7 WSW 7 15 4 8 1005.4 1005.3 0.0
28/03:30pm 31.5 35.9 24.4 66 5.0 W 9 20 5 11 1005.7 1005.6 0.0
28/03:00pm 30.9 35.2 24.3 68 4.6 W 9 17 5 9 1006.0 1005.9 0.0
28/02:30pm 30.5 34.8 24.9 72 3.9 W 11 26 6 14 1006.4 1006.3 0.0
28/02:00pm 30.6 35.5 25.2 73 3.8 WNW 9 19 5 10 1006.6 1006.5 0.0
28/01:30pm 31.3 36.4 25.6 71 4.1 WNW 9 20 5 11 1007.1 1007.0 0.0
28/01:00pm 30.8 35.7 25.2 72 4.0 WNW 9 20 5 11 1007.5 1007.4 0.0
28/12:30pm 30.9 35.8 25.3 72 4.0 W 9 17 5 9 1007.8 1007.7 0.0
28/12:00pm 30.7 35.8 25.5 74 3.7 WNW 9 17 5 9 1008.2 1008.1 0.0
28/11:30am 30.3 35.1 25.1 73 3.7 WNW 9 20 5 11 1008.7 1008.6 0.0
28/11:00am 30.9 36.3 25.5 73 3.8 WNW 7 19 4 10 1008.9 1008.8 0.0
28/10:30am 30.1 35.9 26.1 79 2.9 W 7 15 4 8 1008.9 1008.8 0.0
28/10:00am 29.4 34.5 24.9 77 3.2 WNW 7 17 4 9 1008.9 1008.8 0.0
28/09:30am 29.5 34.7 25.7 80 2.7 WNW 9 19 5 10 1008.5 1008.4 0.0
28/09:00am 28.6 34.6 26.0 86 1.8 WNW 6 13 3 7 1008.1 1008.0 57.4
28/08:30am 27.5 33.5 25.5 89 1.4 W 4 9 2 5 1007.8 1007.7 57.4
28/08:00am 26.7 32.3 25.5 93 0.8 WNW 6 15 3 8 1007.3 1007.2 57.4
28/07:30am 26.2 31.7 25.3 95 0.6 WNW 6 17 3 9 1007.3 1007.2 57.4
28/07:00am 25.7 31.0 25.2 97 0.3 NW 7 15 4 8 1007.1 1007.0 57.4
28/06:30am 25.7 31.3 25.4 98 0.2 WSW 6 9 3 5 1006.7 1006.6 57.4
28/06:00am 26.1 31.1 25.4 96 0.5 SSW 9 13 5 7 1006.7 1006.6 57.4
28/05:30am 25.7 31.0 25.2 97 0.3 SSW 7 13 4 7 1006.3 1006.2 57.4
28/05:00am 24.9 30.1 24.2 96 0.5 SSW 4 6 2 3 1005.8 1005.7 57.4
28/04:30am 24.9 30.5 24.2 96 0.5 S 2 4 1 2 1005.5 1005.4 57.4
28/04:00am 25.1 30.7 24.2 95 0.6 WSW 2 7 1 4 1005.4 1005.3 57.4
28/03:30am 25.3 30.5 24.8 97 0.3 WNW 6 17 3 9 1006.1 1006.0 57.4
28/03:00am 25.3 30.9 24.8 97 0.3 WNW 4 7 2 4 1007.1 1007.0 57.2
28/02:30am 25.1 30.2 24.6 97 0.3 NW 6 15 3 8 1007.6 1007.5 57.2
28/02:00am 24.6 29.2 24.1 97 0.3 NNW 7 13 4 7 1008.1 1008.0 57.2
28/01:30am 24.2 28.5 23.7 97 0.3 NNW 7 17 4 9 1008.4 1008.3 56.8
28/01:00am 23.6 26.7 22.9 96 0.5 NNW 11 20 6 11 1009.0 1008.9 55.6
28/12:30am 23.9 26.9 23.4 97 0.3 NNW 13 22 7 12 1009.6 1009.5 53.2
28/12:00am 24.7 28.3 23.8 95 0.6 NW 11 24 6 13 1009.9 1009.8 19.4
 
Date/Time
CST
Tmp

°C
App
Tmp
°C
Dew
Point
°C
Rel
Hum
%
Delta-T

°C
Wind Press
QNH
hPa
Press
MSL
hPa
Rain
since
9 am
mm
Dir
 
Spd
km/h
Gust
km/h
Spd
kts
Gust
kts
27/11:30pm 25.8 30.5 24.9 95 0.6 NNW 9 17 5 9 1010.0 1009.9 9.8
27/11:00pm 25.9 31.3 25.4 97 0.4 NNW 7 15 4 8 1009.9 1009.8 9.8
27/10:30pm 25.1 31.1 24.2 95 0.6 CALM 0 0 0 0 1009.4 1009.3 9.8
27/10:00pm 25.1 31.1 24.2 95 0.6 CALM 0 0 0 0 1009.2 1009.1 9.8
27/09:30pm 25.2 31.2 24.2 94 0.7 CALM 0 0 0 0 1009.1 1009.0 9.8
27/09:00pm 25.3 30.8 24.1 93 0.8 WNW 2 6 1 3 1008.7 1008.6 9.8
27/08:30pm 25.2 30.8 24.2 94 0.7 NW 2 7 1 4 1008.1 1008.0 9.8
27/08:00pm 25.1 30.1 23.9 93 0.8 WSW 4 7 2 4 1007.7 1007.6 9.4
27/07:30pm 25.4 30.6 24.2 93 0.8 W 4 7 2 4 1007.4 1007.3 8.2
27/07:00pm 25.8 30.7 24.4 92 1.0 WNW 6 11 3 6 1007.2 1007.1 7.6
27/06:30pm 26.5 32.3 24.5 89 1.4 NNE 2 6 1 3 1006.5 1006.4 5.8
27/06:00pm 27.0 33.0 24.8 88 1.5 NE 2 6 1 3 1006.1 1006.0 5.8
27/05:30pm 27.1 32.2 24.6 86 1.7 WNW 6 11 3 6 1006.0 1005.9 5.8
27/05:00pm 28.2 35.2 25.8 87 1.7 CALM 0 6 0 3 1005.2 1005.1 5.8
27/04:30pm 27.9 33.5 25.5 87 1.7 W 6 13 3 7 1005.2 1005.1 5.8
27/04:00pm 27.8 33.4 25.4 87 1.7 WNW 6 13 3 7 1005.5 1005.4 5.8
27/03:30pm 27.6 33.2 25.4 88 1.5 WNW 6 13 3 7 1005.7 1005.6 5.8
27/03:00pm 27.2 33.5 25.4 90 1.3 NW 2 4 1 2 1005.9 1005.8 5.8
27/02:30pm 28.3 32.5 24.1 78 2.9 W 9 28 5 15 1006.2 1006.1 1.4
27/02:00pm 30.0 35.6 25.7 78 3.0 NW 7 15 4 8 1006.4 1006.3 0.8
27/01:30pm 28.9 33.8 24.7 78 2.9 SW 7 15 4 8 1006.7 1006.6 0.8
27/01:00pm 29.4 34.8 25.2 78 3.0 WNW 6 9 3 5 1007.1 1007.0 0.6
27/12:30pm 31.3 36.0 24.9 69 4.5 WNW 9 17 5 9 1007.8 1007.7 0.4
27/12:00pm 29.7 35.4 25.9 80 2.7 NW 7 13 4 7 1008.3 1008.2 0.4
27/11:30am 29.1 35.9 26.1 84 2.1 NW 2 4 1 2 1008.6 1008.5 0.4
27/11:00am 28.5 35.4 26.3 88 1.6 W 2 7 1 4 1008.9 1008.8 0.4
27/10:30am 28.4 35.9 26.6 90 1.3 CALM 0 0 0 0 1009.0 1008.9 0.4
27/10:00am 28.8 34.7 25.4 82 2.4 NW 4 7 2 4 1008.8 1008.7 0.0
27/09:30am 28.7 34.7 25.5 83 2.3 SW 4 6 2 3 1008.8 1008.7 0.0
27/09:00am 28.6 34.8 25.8 85 2.0 SSW 4 6 2 3 1008.6 1008.5 2.2
27/08:30am 28.2 34.7 25.6 86 1.8 W 2 6 1 3 1008.1 1008.0 2.2
27/08:00am 27.9 34.0 25.7 88 1.6 WNW 4 11 2 6 1007.3 1007.2 2.2
27/07:30am 27.3 32.9 25.5 90 1.3 NW 6 13 3 7 1006.4 1006.3 2.2
27/07:00am 27.2 33.0 25.2 89 1.4 WNW 4 9 2 5 1006.3 1006.2 2.2
27/06:30am 27.0 32.8 25.2 90 1.3 NW 4 9 2 5 1006.4 1006.3 2.2
27/06:00am 26.9 32.9 24.9 89 1.4 W 2 6 1 3 1006.4 1006.3 2.2
27/05:30am 27.1 32.9 25.1 89 1.4 W 4 6 2 3 1006.2 1006.1 2.2
27/05:00am 26.9 32.5 24.9 89 1.4 W 4 9 2 5 1006.1 1006.0 2.2
27/04:30am 26.8 32.6 24.6 88 1.5 W 2 6 1 3 1006.2 1006.1 2.2
27/04:00am 26.8 32.6 24.6 88 1.5 W 2 4 1 2 1006.2 1006.1 2.2
27/03:30am 26.7 32.6 24.7 89 1.4 W 2 6 1 3 1006.1 1006.0 2.2
27/03:00am 26.5 32.4 24.7 90 1.3 WSW 2 4 1 2 1006.3 1006.2 2.2
27/02:30am 26.4 32.6 24.6 90 1.3 CALM 0 2 0 1 1006.8 1006.7 2.2
27/02:00am 26.7 32.5 24.5 88 1.5 SW 2 4 1 2 1007.3 1007.2 2.2
27/01:30am 26.8 32.6 24.6 88 1.5 WNW 2 6 1 3 1007.7 1007.6 2.2
27/01:00am 26.9 32.8 24.7 88 1.5 W 2 6 1 3 1008.1 1008.0 2.2
27/12:30am 26.9 32.8 24.7 88 1.5 W 2 6 1 3 1008.4 1008.3 2.2
27/12:00am 26.8 32.2 24.5 87 1.6 WNW 4 7 2 4 1008.7 1008.6 2.2
 
Date/Time
CST
Tmp

°C
App
Tmp
°C
Dew
Point
°C
Rel
Hum
%
Delta-T

°C
Wind Press
QNH
hPa
Press
MSL
hPa
Rain
since
9 am
mm
Dir
 
Spd
km/h
Gust
km/h
Spd
kts
Gust
kts
26/11:30pm 26.9 32.8 24.7 88 1.5 WNW 2 6 1 3 1009.1 1009.0 2.2
26/11:00pm 27.4 33.0 24.8 86 1.8 WSW 4 9 2 5 1009.3 1009.2 2.2
26/10:30pm 27.6 33.0 25.4 88 1.5 NW 7 17 4 9 1008.7 1008.6 2.2
26/10:00pm 27.6 32.9 25.2 87 1.7 NW 7 15 4 8 1008.1 1008.0 2.2
26/09:30pm 27.7 32.9 25.1 86 1.8 NW 7 13 4 7 1007.7 1007.6 2.2
26/09:00pm 27.8 32.5 25.0 85 2.0 NW 9 17 5 9 1007.1 1007.0 2.2
26/08:30pm 28.0 33.4 25.4 86 1.8 NW 7 13 4 7 1007.7 1007.6 2.2
26/08:00pm 27.8 33.0 24.8 84 2.1 NW 6 11 3 6 1007.4 1007.3 2.2
26/07:30pm 28.1 32.9 25.1 84 2.1 NW 9 17 5 9 1006.8 1006.7 2.2
26/07:00pm 28.6 33.6 25.4 83 2.3 NW 9 17 5 9 1006.5 1006.4 2.2
26/06:30pm 28.9 34.0 24.9 79 2.8 NW 7 13 4 7 1006.4 1006.3 2.2
26/06:00pm 29.1 34.2 24.9 78 2.9 NW 7 13 4 7 1006.4 1006.3 2.2
26/05:30pm 29.8 34.4 24.7 74 3.6 NW 9 13 5 7 1006.3 1006.2 2.2
26/05:00pm 30.7 35.6 25.3 73 3.8 NW 9 19 5 10 1006.0 1005.9 2.2
26/04:30pm 30.2 35.5 25.9 78 3.1 NW 9 19 5 10 1005.6 1005.5 2.2
26/04:00pm 29.6 35.5 26.8 85 2.0 NW 9 19 5 10 1005.8 1005.7 2.2
26/03:30pm 29.2 34.1 25.2 79 2.8 NW 9 19 5 10 1005.8 1005.7 1.2
26/03:00pm 30.7 35.2 24.6 70 4.3 NW 9 20 5 11 1005.9 1005.8 0.0
26/02:30pm 31.8 37.3 25.6 69 4.4 NW 7 13 4 7 1006.1 1006.0 0.0
26/02:00pm 32.6 38.1 26.2 69 4.6 NW 9 19 5 10 1006.4 1006.3 0.0
26/01:30pm 31.4 36.5 25.0 69 4.5 NW 7 15 4 8 1006.9 1006.8 0.0
26/01:00pm 31.6 36.5 24.7 67 4.8 NNW 7 19 4 10 1007.5 1007.4 0.0
26/12:30pm 32.1 36.9 24.4 63 5.4 WNW 7 13 4 7 1008.1 1008.0 0.0
26/12:00pm 32.3 37.9 24.3 62 5.6 WNW 2 6 1 3 1008.4 1008.3 0.0
26/11:30am 31.6 37.1 24.7 67 4.9 NW 4 7 2 4 1008.5 1008.4 0.0
26/11:00am 31.2 36.7 24.6 68 4.6 NW 4 7 2 4 1008.5 1008.4 0.0
26/10:30am 30.6 36.4 24.5 70 4.3 WNW 2 7 1 4 1009.1 1009.0 0.0
26/10:00am 30.3 36.4 25.6 76 3.3 NW 4 6 2 3 1009.4 1009.3 0.0
26/09:30am 29.5 35.5 25.5 79 2.8 WNW 4 6 2 3 1009.3 1009.2 0.0
26/09:00am 28.4 34.5 25.0 82 2.4 WNW 2 4 1 2 1009.1 1009.0 0.0
26/08:30am 27.3 33.3 24.9 87 1.7 WNW 2 6 1 3 1008.8 1008.7 0.0
26/08:00am 26.1 32.5 24.9 93 0.8 CALM 0 0 0 0 1008.5 1008.4 0.0
26/07:30am 25.4 31.5 24.4 94 0.7 CALM 0 0 0 0 1008.2 1008.1 0.0
26/07:00am 25.4 31.0 24.2 93 0.8 WNW 2 4 1 2 1007.7 1007.6 0.0
26/06:30am 25.5 30.8 24.3 93 0.8 W 4 7 2 4 1007.9 1007.8 0.0
26/06:00am 25.6 31.3 24.4 93 0.8 W 2 6 1 3 1007.9 1007.8 0.0
26/05:30am 25.0 30.5 24.0 94 0.7 WNW 2 6 1 3 1007.9 1007.8 0.0
26/05:00am 24.9 30.3 23.9 94 0.7 W 2 6 1 3 1007.7 1007.6 0.0
26/04:30am 24.8 30.2 23.9 95 0.6 W 2 4 1 2 1007.8 1007.7 0.0
26/04:00am 24.8 30.3 24.1 96 0.5 W 2 4 1 2 1007.6 1007.5 0.0
26/03:30am 24.6 30.3 23.7 95 0.6 CALM 0 0 0 0 1007.7 1007.6 0.0
26/03:00am 24.7 30.4 23.8 95 0.6 CALM 0 0 0 0 1007.5 1007.4 0.0
26/02:30am 24.8 30.6 23.9 95 0.6 CALM 0 0 0 0 1007.5 1007.4 0.0
26/02:00am 24.8 30.5 23.8 94 0.7 CALM 0 4 0 2 1007.8 1007.7 0.0
26/01:30am 24.9 30.3 23.9 94 0.7 W 2 4 1 2 1007.9 1007.8 0.0
26/01:00am 25.0 30.7 23.8 93 0.8 CALM 0 0 0 0 1008.1 1008.0 0.0
26/12:30am 25.1 30.9 23.9 93 0.8 CALM 0 2 0 1 1008.4 1008.3 0.0
26/12:00am 25.4 31.1 23.8 91 1.1 CALM 0 0 0 0 1008.9 1008.8 0.0
 
Date/Time
CST
Tmp

°C
App
Tmp
°C
Dew
Point
°C
Rel
Hum
%
Delta-T

°C
Wind Press
QNH
hPa
Press
MSL
hPa
Rain
since
9 am
mm
Dir
 
Spd
km/h
Gust
km/h
Spd
kts
Gust
kts
25/11:30pm 25.7 30.8 24.1 91 1.1 SW 4 6 2 3 1009.1 1009.0 0.0
25/11:00pm 25.9 30.8 24.3 91 1.1 SSW 6 7 3 4 1009.1 1009.0 0.0
25/10:30pm 25.7 30.7 23.9 90 1.2 SSW 4 6 2 3 1009.2 1009.1 0.0
25/10:00pm 26.2 31.6 23.9 87 1.6 SW 2 6 1 3 1009.4 1009.3 0.0

Latest Capital City Observations: Canberra | Sydney | Melbourne | Brisbane | Adelaide | Perth | Hobart | Darwin

Other Formats:

Comma delimited format used in spreadsheet applications
http://www.bom.gov.au/fwo/IDD60901/IDD60901.94119.axf

JavaScript Object Notation format (JSON) in row-major order
http://www.bom.gov.au/fwo/IDD60901/IDD60901.94119.json